Wetterdaten: Woche 29.06.20 - 05.07.20 (KW27)
Datum Zeit Temp. Aussen Temp. o. S. Temp +5cm Feuchte Auss Luftdruck Regen Sonnenschein Regendauer Solar Windben Empfang
29.06.2020 00:00 17,7 C 16,3 C 16,4 C 72 % 1013,2 hPa 0,0 l/m 0,00 h 0,03 h 0 W/m 5,0 km/h (1 Bft) 96,58 %
29.06.2020 01:00 16,9 C 14,7 C 15,1 C 76 % 1013,5 hPa 0,0 l/m 0,00 h 0,00 h 0 W/m 0,3 km/h (0 Bft) 97,90 %
29.06.2020 02:00 16,1 C 15,0 C 15,0 C 78 % 1013,2 hPa 0,0 l/m 0,00 h 0,00 h 0 W/m 2,6 km/h (1 Bft) 95,73 %
29.06.2020 03:00 15,6 C 14,1 C 14,2 C 84 % 1013,2 hPa 0,0 l/m 0,00 h 0,00 h 0 W/m 9,8 km/h (2 Bft) 96,98 %
29.06.2020 04:00 14,7 C 13,3 C 13,6 C 87 % 1013,0 hPa 0,0 l/m 0,00 h 0,00 h 0 W/m 4,0 km/h (1 Bft) 98,69 %
29.06.2020 05:00 14,2 C 13,0 C 13,1 C 88 % 1012,4 hPa 0,0 l/m 0,00 h 0,00 h 13 W/m 0,6 km/h (0 Bft) 96,79 %
29.06.2020 06:00 14,3 C 13,9 C 13,7 C 90 % 1012,1 hPa 0,0 l/m 0,00 h 0,00 h 18 W/m 5,3 km/h (1 Bft) 96,29 %
29.06.2020 07:00 14,8 C 13,9 C 14,0 C 89 % 1012,8 hPa 0,0 l/m 0,00 h 0,30 h 19 W/m 9,4 km/h (2 Bft) 98,64 %
29.06.2020 08:00 14,8 C 13,8 C 13,8 C 88 % 1012,9 hPa 0,2 l/m 0,00 h 0,43 h 105 W/m 7,2 km/h (2 Bft) 98,36 %
29.06.2020 09:00 16,5 C 19,4 C 19,4 C 84 % 1012,9 hPa 0,0 l/m 0,63 h 0,00 h 405 W/m 13,0 km/h (3 Bft) 96,07 %
29.06.2020 10:00 18,5 C 22,6 C 22,9 C 70 % 1012,9 hPa 0,0 l/m 0,93 h 0,00 h 714 W/m 16,0 km/h (3 Bft) 96,14 %
29.06.2020 11:00 19,6 C 22,2 C 21,2 C 62 % 1012,8 hPa 0,0 l/m 0,63 h 0,00 h 628 W/m 19,2 km/h (3 Bft) 95,59 %
29.06.2020 12:00 20,3 C 21,4 C 20,7 C 60 % 1012,9 hPa 0,0 l/m 0,27 h 0,00 h 411 W/m 24,6 km/h (4 Bft) 95,95 %
29.06.2020 13:00 20,4 C 22,2 C 21,3 C 59 % 1012,6 hPa 0,0 l/m 0,37 h 0,00 h 574 W/m 20,1 km/h (4 Bft) 98,71 %
29.06.2020 14:00 21,4 C 23,6 C 21,8 C 54 % 1012,3 hPa 0,0 l/m 0,50 h 0,00 h 655 W/m 19,1 km/h (3 Bft) 97,74 %
29.06.2020 15:00 21,6 C 23,3 C 21,2 C 53 % 1012,1 hPa 0,0 l/m 0,43 h 0,00 h 558 W/m 19,2 km/h (3 Bft) 97,41 %
29.06.2020 16:00 22,0 C 23,2 C 21,3 C 51 % 1011,8 hPa 0,0 l/m 0,53 h 0,00 h 464 W/m 19,8 km/h (4 Bft) 96,35 %
29.06.2020 17:00 21,3 C 21,9 C 20,4 C 52 % 1011,7 hPa 0,0 l/m 0,27 h 0,00 h 338 W/m 18,6 km/h (3 Bft) 99,01 %
29.06.2020 18:00 21,3 C 21,4 C 20,2 C 51 % 1011,6 hPa 0,0 l/m 0,43 h 0,00 h 269 W/m 18,5 km/h (3 Bft) 98,16 %
29.06.2020 19:00 20,4 C 19,5 C 19,1 C 53 % 1011,4 hPa 0,0 l/m 0,17 h 0,00 h 137 W/m 16,5 km/h (3 Bft) 94,97 %
29.06.2020 20:00 19,3 C 18,2 C 18,1 C 57 % 1011,3 hPa 0,0 l/m 0,00 h 0,00 h 49 W/m 13,5 km/h (3 Bft) 99,56 %
29.06.2020 21:00 18,3 C 16,8 C 17,0 C 58 % 1011,4 hPa 0,0 l/m 0,00 h 0,00 h 13 W/m 9,0 km/h (2 Bft) 97,93 %
29.06.2020 22:00 17,0 C 15,3 C 15,6 C 63 % 1011,6 hPa 0,0 l/m 0,00 h 0,00 h 0 W/m 2,8 km/h (1 Bft) 94,77 %
29.06.2020 23:00 16,0 C 14,5 C 14,9 C 66 % 1011,7 hPa 0,0 l/m 0,00 h 0,00 h 0 W/m 6,0 km/h (2 Bft) 97,86 %
30.06.2020 00:00 15,4 C 14,1 C 14,4 C 69 % 1011,7 hPa 0,0 l/m 0,00 h 0,00 h 0 W/m 9,8 km/h (2 Bft) 97,56 %
30.06.2020 01:00 14,8 C 13,8 C 13,9 C 69 % 1011,4 hPa 0,0 l/m 0,00 h 0,00 h 0 W/m 13,1 km/h (3 Bft) 96,94 %
30.06.2020 02:00 14,4 C 13,3 C 13,4 C 70 % 1011,1 hPa 0,0 l/m 0,00 h 0,00 h 0 W/m 13,0 km/h (3 Bft) 97,22 %
30.06.2020 03:00 14,0 C 12,8 C 12,9 C 72 % 1010,8 hPa 0,0 l/m 0,00 h 0,00 h 0 W/m 10,9 km/h (2 Bft) 95,04 %
30.06.2020 04:00 13,7 C 12,7 C 12,8 C 76 % 1010,6 hPa 0,0 l/m 0,00 h 0,00 h 0 W/m 13,6 km/h (3 Bft) 98,13 %
30.06.2020 05:00 13,5 C 12,5 C 12,8 C 78 % 1010,6 hPa 0,0 l/m 0,00 h 0,00 h 10 W/m 12,6 km/h (3 Bft) 98,79 %
30.06.2020 06:00 13,7 C 12,9 C 12,8 C 80 % 1010,7 hPa 0,0 l/m 0,00 h 0,00 h 22 W/m 16,1 km/h (3 Bft) 95,01 %
30.06.2020 07:00 14,4 C 14,3 C 13,6 C 79 % 1010,7 hPa 0,0 l/m 0,00 h 0,00 h 59 W/m 19,0 km/h (3 Bft) 96,30 %
30.06.2020 08:00 16,0 C 17,1 C 15,9 C 76 % 1010,7 hPa 0,0 l/m 0,27 h 0,00 h 201 W/m 17,4 km/h (3 Bft) 97,73 %
30.06.2020 09:00 17,7 C 20,1 C 19,5 C 70 % 1010,7 hPa 0,0 l/m 0,67 h 0,00 h 411 W/m 20,4 km/h (4 Bft) 94,36 %
30.06.2020 10:00 19,1 C 21,7 C 21,6 C 66 % 1010,5 hPa 0,0 l/m 0,67 h 0,00 h 577 W/m 21,8 km/h (4 Bft) 99,22 %
30.06.2020 11:00 20,0 C 22,0 C 21,1 C 62 % 1010,3 hPa 0,0 l/m 0,30 h 0,00 h 405 W/m 21,2 km/h (4 Bft) 98,93 %
30.06.2020 12:00 21,0 C 22,3 C 21,6 C 59 % 1010,4 hPa 0,0 l/m 0,30 h 0,00 h 421 W/m 19,5 km/h (3 Bft) 94,41 %
30.06.2020 13:00 21,6 C 23,5 C 22,0 C 58 % 1010,3 hPa 0,0 l/m 0,50 h 0,00 h 487 W/m 21,3 km/h (4 Bft) 91,21 %
30.06.2020 14:00 22,1 C 23,6 C 22,0 C 57 % 1010,1 hPa 0,0 l/m 0,50 h 0,00 h 485 W/m 21,2 km/h (4 Bft) 94,61 %
30.06.2020 15:00 22,9 C 24,5 C 22,5 C 56 % 1009,8 hPa 0,0 l/m 0,63 h 0,00 h 498 W/m 21,9 km/h (4 Bft) 97,57 %
30.06.2020 16:00 22,1 C 21,6 C 21,2 C 60 % 1009,8 hPa 0,0 l/m 0,00 h 0,00 h 199 W/m 18,1 km/h (3 Bft) 94,52 %
30.06.2020 17:00 21,1 C 20,2 C 20,2 C 67 % 1009,7 hPa 0,0 l/m 0,00 h 0,10 h 117 W/m 15,5 km/h (3 Bft) 96,15 %
30.06.2020 18:00 19,7 C 17,6 C 18,1 C 77 % 1009,6 hPa 0,0 l/m 0,00 h 0,43 h 100 W/m 10,0 km/h (2 Bft) 93,97 %
30.06.2020 19:00 19,3 C 18,9 C 18,1 C 78 % 1008,9 hPa 0,0 l/m 0,00 h 0,00 h 67 W/m 7,9 km/h (2 Bft) 84,26 %
30.06.2020 20:00 19,7 C 18,3 C 18,4 C 76 % 1008,8 hPa 0,0 l/m 0,00 h 0,37 h 19 W/m 13,9 km/h (3 Bft) 96,60 %
30.06.2020 21:00 19,0 C 16,9 C 17,2 C 82 % 1008,6 hPa 0,2 l/m 0,00 h 0,60 h 7 W/m 11,4 km/h (2 Bft) 99,57 %
30.06.2020 22:00 18,6 C 17,8 C 17,2 C 83 % 1008,6 hPa 0,0 l/m 0,00 h 0,00 h 0 W/m 9,8 km/h (2 Bft) 95,15 %
30.06.2020 23:00 19,0 C 18,2 C 17,8 C 81 % 1008,7 hPa 0,0 l/m 0,00 h 0,00 h 0 W/m 21,6 km/h (4 Bft) 96,17 %
01.07.2020 00:00 18,9 C 17,9 C 17,6 C 84 % 1008,5 hPa 0,0 l/m 0,00 h 0,00 h 0 W/m 17,8 km/h (3 Bft) 98,93 %
01.07.2020 01:00 19,1 C 18,3 C 17,8 C 83 % 1008,3 hPa 0,0 l/m 0,00 h 0,00 h 0 W/m 14,2 km/h (3 Bft) 96,37 %
01.07.2020 02:00 19,1 C 17,3 C 17,4 C 83 % 1007,9 hPa 0,6 l/m 0,00 h 0,37 h 0 W/m 3,7 km/h (1 Bft) 96,51 %
01.07.2020 03:00 18,1 C 15,6 C 15,7 C 90 % 1007,7 hPa 1,0 l/m 0,00 h 0,27 h 0 W/m 0,7 km/h (0 Bft) 98,22 %
01.07.2020 04:00 17,2 C 15,6 C 15,6 C 94 % 1007,5 hPa 0,2 l/m 0,00 h 0,27 h 0 W/m 9,3 km/h (2 Bft) 97,82 %
01.07.2020 05:00 16,9 C 15,6 C 15,5 C 96 % 1007,2 hPa 1,2 l/m 0,00 h 0,57 h 3 W/m 9,6 km/h (2 Bft) 96,58 %
01.07.2020 06:00 16,8 C 15,6 C 15,0 C 97 % 1007,1 hPa 1,0 l/m 0,00 h 0,83 h 9 W/m 8,5 km/h (2 Bft) 95,87 %
01.07.2020 07:00 16,9 C 15,6 C 15,6 C 98 % 1007,1 hPa 2,0 l/m 0,00 h 1,00 h 31 W/m 12,8 km/h (3 Bft) 97,79 %
01.07.2020 08:00 17,2 C 16,1 C 15,6 C 99 % 1007,3 hPa 0,2 l/m 0,00 h 0,17 h 58 W/m 12,8 km/h (3 Bft) 98,44 %
01.07.2020 09:00 17,3 C 16,1 C 16,0 C 99 % 1007,5 hPa 3,8 l/m 0,00 h 1,00 h 43 W/m 2,5 km/h (1 Bft) 95,69 %
01.07.2020 10:00 17,7 C 16,8 C 16,3 C 99 % 1007,3 hPa 0,8 l/m 0,00 h 0,80 h 93 W/m 7,3 km/h (2 Bft) 97,93 %
01.07.2020 11:00 18,3 C 18,2 C 17,0 C 100 % 1007,1 hPa 0,0 l/m 0,00 h 0,00 h 173 W/m 13,9 km/h (3 Bft) 98,23 %
01.07.2020 12:00 18,8 C 19,0 C 17,3 C 99 % 1007,0 hPa 0,0 l/m 0,07 h 0,00 h 186 W/m 19,4 km/h (3 Bft) 96,74 %
01.07.2020 13:00 20,1 C 20,6 C 17,7 C 92 % 1007,0 hPa 0,0 l/m 0,03 h 0,00 h 198 W/m 23,6 km/h (4 Bft) 97,58 %
01.07.2020 14:00 21,1 C 21,4 C 18,3 C 85 % 1007,0 hPa 0,0 l/m 0,00 h 0,00 h 230 W/m 26,7 km/h (4 Bft) 95,97 %
01.07.2020 15:00 22,1 C 22,7 C 20,4 C 82 % 1006,9 hPa 0,0 l/m 0,07 h 0,00 h 261 W/m 24,4 km/h (4 Bft) 91,48 %
01.07.2020 16:00 20,7 C 18,8 C 18,1 C 91 % 1007,5 hPa 10,8 l/m 0,03 h 0,40 h 172 W/m 14,2 km/h (3 Bft) 97,37 %
01.07.2020 17:00 20,3 C 20,2 C 18,2 C 97 % 1007,4 hPa 0,0 l/m 0,37 h 0,00 h 269 W/m 16,2 km/h (3 Bft) 96,95 %
01.07.2020 18:00 20,4 C 18,7 C 17,7 C 94 % 1007,2 hPa 0,2 l/m 0,03 h 0,40 h 65 W/m 9,4 km/h (2 Bft) 98,13 %
01.07.2020 19:00 19,2 C 17,5 C 16,9 C 94 % 1007,5 hPa 0,4 l/m 0,17 h 0,23 h 112 W/m 12,2 km/h (3 Bft) 96,81 %
01.07.2020 20:00 18,7 C 17,2 C 16,7 C 95 % 1007,6 hPa 0,0 l/m 0,00 h 0,00 h 42 W/m 9,9 km/h (2 Bft) 97,52 %
01.07.2020 21:00 18,5 C 17,0 C 16,5 C 96 % 1008,0 hPa 0,0 l/m 0,07 h 0,00 h 18 W/m 5,1 km/h (1 Bft) 97,12 %
01.07.2020 22:00 18,0 C 16,4 C 16,1 C 96 % 1008,6 hPa 0,0 l/m 0,00 h 0,00 h 0 W/m 1,9 km/h (1 Bft) 93,16 %
01.07.2020 23:00 17,5 C 15,8 C 15,4 C 97 % 1008,8 hPa 0,0 l/m 0,00 h 0,00 h 0 W/m 1,0 km/h (0 Bft) 97,64 %
02.07.2020 00:00 16,9 C 15,7 C 15,1 C 97 % 1009,2 hPa 0,0 l/m 0,00 h 0,00 h 0 W/m 6,8 km/h (2 Bft) 99,19 %
02.07.2020 01:00 16,3 C 14,9 C 14,3 C 96 % 1009,5 hPa 0,0 l/m 0,00 h 0,00 h 0 W/m 3,5 km/h (1 Bft) 94,25 %
02.07.2020 02:00 15,5 C 14,1 C 13,5 C 95 % 1009,6 hPa 0,0 l/m 0,00 h 0,00 h 0 W/m 0,9 km/h (0 Bft) 96,04 %
02.07.2020 03:00 14,9 C 13,7 C 13,0 C 96 % 1009,8 hPa 0,0 l/m 0,00 h 0,00 h 0 W/m 3,2 km/h (1 Bft) 95,82 %
02.07.2020 04:00 14,3 C 13,0 C 12,5 C 96 % 1009,8 hPa 0,0 l/m 0,00 h 0,00 h 0 W/m 3,0 km/h (1 Bft) 96,37 %
02.07.2020 05:00 13,9 C 12,8 C 12,2 C 96 % 1009,9 hPa 0,0 l/m 0,00 h 0,00 h 7 W/m 4,3 km/h (1 Bft) 97,31 %
02.07.2020 06:00 13,7 C 13,4 C 12,2 C 96 % 1010,1 hPa 0,0 l/m 0,00 h 0,00 h 17 W/m 2,7 km/h (1 Bft) 95,81 %
02.07.2020 07:00 14,8 C 15,8 C 13,6 C 95 % 1010,3 hPa 0,0 l/m 0,00 h 0,00 h 81 W/m 11,3 km/h (2 Bft) 98,08 %
02.07.2020 08:00 16,7 C 19,0 C 15,1 C 90 % 1010,7 hPa 0,0 l/m 0,10 h 0,00 h 144 W/m 12,6 km/h (3 Bft) 98,65 %
02.07.2020 09:00 18,1 C 21,0 C 19,2 C 86 % 1010,7 hPa 0,0 l/m 0,50 h 0,00 h 368 W/m 10,3 km/h (2 Bft) 96,08 %
02.07.2020 10:00 19,7 C 21,5 C 20,4 C 81 % 1010,8 hPa 0,0 l/m 0,17 h 0,00 h 285 W/m 9,9 km/h (2 Bft) 97,37 %
02.07.2020 11:00 19,3 C 20,0 C 18,3 C 81 % 1011,0 hPa 0,2 l/m 0,00 h 0,00 h 243 W/m 12,4 km/h (3 Bft) 97,01 %
02.07.2020 12:00 20,4 C 21,5 C 19,3 C 77 % 1011,2 hPa 0,0 l/m 0,10 h 0,00 h 251 W/m 12,8 km/h (3 Bft) 98,60 %
02.07.2020 13:00 20,3 C 20,3 C 18,6 C 77 % 1011,4 hPa 0,0 l/m 0,00 h 0,00 h 182 W/m 8,9 km/h (2 Bft) 98,43 %
02.07.2020 14:00 21,4 C 23,9 C 20,4 C 74 % 1011,3 hPa 0,0 l/m 0,37 h 0,00 h 492 W/m 13,4 km/h (3 Bft) 95,10 %
02.07.2020 15:00 21,5 C 20,9 C 19,6 C 76 % 1011,4 hPa 0,0 l/m 0,27 h 0,13 h 338 W/m 14,4 km/h (3 Bft) 99,00 %
02.07.2020 16:00 21,9 C 22,9 C 19,7 C 70 % 1011,5 hPa 0,0 l/m 0,43 h 0,07 h 426 W/m 16,2 km/h (3 Bft) 98,15 %
02.07.2020 17:00 19,3 C 18,4 C 17,5 C 83 % 1012,1 hPa 0,0 l/m 0,00 h 0,13 h 158 W/m 7,4 km/h (2 Bft) 96,45 %
02.07.2020 18:00 18,8 C 18,2 C 17,5 C 83 % 1012,4 hPa 0,0 l/m 0,07 h 0,00 h 108 W/m 12,2 km/h (2 Bft) 98,13 %
02.07.2020 19:00 19,1 C 19,1 C 17,8 C 83 % 1012,7 hPa 0,0 l/m 0,40 h 0,00 h 160 W/m 8,6 km/h (2 Bft) 97,73 %
02.07.2020 20:00 19,0 C 17,5 C 17,1 C 83 % 1013,1 hPa 0,0 l/m 0,00 h 0,00 h 28 W/m 5,1 km/h (1 Bft) 97,74 %
02.07.2020 21:00 17,2 C 14,5 C 15,1 C 80 % 1014,0 hPa 0,0 l/m 0,00 h 0,33 h 5 W/m 6,3 km/h (2 Bft) 94,86 %
02.07.2020 22:00 15,1 C 13,3 C 13,4 C 87 % 1014,5 hPa 0,0 l/m 0,00 h 0,00 h 0 W/m 2,2 km/h (1 Bft) 98,15 %
02.07.2020 23:00 14,4 C 12,9 C 12,9 C 89 % 1014,8 hPa 0,0 l/m 0,00 h 0,00 h 0 W/m 0,0 km/h (0 Bft) 97,58 %
03.07.2020 00:00 13,9 C 12,6 C 12,5 C 91 % 1015,2 hPa 0,0 l/m 0,00 h 0,00 h 0 W/m 0,0 km/h (0 Bft) 98,97 %
03.07.2020 01:00 13,8 C 12,8 C 12,8 C 93 % 1015,4 hPa 0,0 l/m 0,00 h 0,00 h 0 W/m 2,7 km/h (1 Bft) 94,16 %
03.07.2020 02:00 13,7 C 12,8 C 12,6 C 94 % 1015,6 hPa 0,0 l/m 0,00 h 0,00 h 0 W/m 6,2 km/h (2 Bft) 98,51 %
03.07.2020 03:00 13,3 C 12,1 C 12,1 C 93 % 1016,0 hPa 0,0 l/m 0,00 h 0,00 h 0 W/m 2,4 km/h (1 Bft) 97,34 %
03.07.2020 04:00 12,8 C 11,8 C 11,9 C 92 % 1016,0 hPa 0,0 l/m 0,00 h 0,00 h 0 W/m 4,2 km/h (1 Bft) 96,38 %
03.07.2020 05:00 13,0 C 12,6 C 12,5 C 93 % 1016,4 hPa 0,0 l/m 0,00 h 0,00 h 6 W/m 9,3 km/h (2 Bft) 96,73 %
03.07.2020 06:00 13,6 C 13,2 C 12,9 C 92 % 1016,9 hPa 0,0 l/m 0,00 h 0,00 h 30 W/m 10,4 km/h (2 Bft) 92,40 %
03.07.2020 07:00 14,1 C 14,1 C 13,6 C 91 % 1017,2 hPa 0,0 l/m 0,00 h 0,00 h 75 W/m 13,5 km/h (3 Bft) 96,31 %
03.07.2020 08:00 15,0 C 15,5 C 14,2 C 90 % 1017,6 hPa 0,0 l/m 0,00 h 0,00 h 126 W/m 16,7 km/h (3 Bft) 98,43 %
03.07.2020 09:00 15,4 C 15,9 C 14,7 C 90 % 1018,0 hPa 0,0 l/m 0,07 h 0,00 h 186 W/m 16,7 km/h (3 Bft) 96,95 %
03.07.2020 10:00 15,9 C 16,7 C 15,5 C 90 % 1018,2 hPa 0,0 l/m 0,00 h 0,00 h 229 W/m 16,2 km/h (3 Bft) 97,28 %
03.07.2020 11:00 17,2 C 18,4 C 16,8 C 85 % 1018,3 hPa 0,0 l/m 0,10 h 0,00 h 255 W/m 16,1 km/h (3 Bft) 97,53 %
03.07.2020 12:00 17,8 C 18,2 C 17,0 C 83 % 1018,5 hPa 0,0 l/m 0,00 h 0,00 h 224 W/m 17,8 km/h (3 Bft) 97,41 %
03.07.2020 13:00 18,4 C 18,9 C 17,6 C 82 % 1018,6 hPa 0,0 l/m 0,00 h 0,00 h 226 W/m 15,9 km/h (3 Bft) 98,40 %
03.07.2020 14:00 19,5 C 21,4 C 19,0 C 78 % 1018,3 hPa 0,0 l/m 0,37 h 0,00 h 388 W/m 15,9 km/h (3 Bft) 94,73 %
03.07.2020 15:00 21,5 C 23,9 C 20,5 C 72 % 1017,9 hPa 0,0 l/m 0,67 h 0,00 h 653 W/m 19,3 km/h (3 Bft) 98,79 %
03.07.2020 16:00 22,6 C 24,8 C 21,2 C 67 % 1017,6 hPa 0,0 l/m 0,73 h 0,00 h 628 W/m 20,3 km/h (4 Bft) 98,79 %
03.07.2020 17:00 23,0 C 24,5 C 21,2 C 65 % 1017,2 hPa 0,0 l/m 0,63 h 0,00 h 461 W/m 18,9 km/h (3 Bft) 95,66 %
03.07.2020 18:00 23,2 C 23,4 C 21,1 C 63 % 1016,9 hPa 0,0 l/m 0,77 h 0,00 h 379 W/m 20,1 km/h (4 Bft) 98,70 %
03.07.2020 19:00 22,5 C 21,7 C 20,5 C 64 % 1016,8 hPa 0,0 l/m 0,73 h 0,00 h 224 W/m 20,2 km/h (4 Bft) 97,02 %
03.07.2020 20:00 21,3 C 20,0 C 19,3 C 66 % 1016,9 hPa 0,0 l/m 0,00 h 0,00 h 40 W/m 14,6 km/h (3 Bft) 96,80 %
03.07.2020 21:00 20,1 C 18,4 C 18,0 C 72 % 1017,2 hPa 0,0 l/m 0,00 h 0,00 h 11 W/m 10,3 km/h (2 Bft) 96,72 %
03.07.2020 22:00 18,9 C 17,4 C 17,2 C 74 % 1017,5 hPa 0,0 l/m 0,00 h 0,00 h 0 W/m 8,8 km/h (2 Bft) 98,43 %
03.07.2020 23:00 18,1 C 16,3 C 16,3 C 77 % 1017,6 hPa 0,0 l/m 0,00 h 0,00 h 0 W/m 3,6 km/h (1 Bft) 97,72 %
04.07.2020 00:00 17,0 C 15,6 C 15,4 C 81 % 1017,8 hPa 0,0 l/m 0,00 h 0,00 h 0 W/m 2,8 km/h (1 Bft) 96,76 %
04.07.2020 01:00 16,5 C 15,6 C 15,3 C 80 % 1017,8 hPa 0,0 l/m 0,00 h 0,00 h 0 W/m 10,1 km/h (2 Bft) 97,46 %
04.07.2020 02:00 16,3 C 15,1 C 14,9 C 79 % 1017,4 hPa 0,0 l/m 0,00 h 0,00 h 0 W/m 10,4 km/h (2 Bft) 98,15 %
04.07.2020 03:00 15,6 C 14,3 C 14,0 C 83 % 1017,2 hPa 0,0 l/m 0,00 h 0,00 h 0 W/m 8,4 km/h (2 Bft) 98,79 %
04.07.2020 04:00 15,2 C 14,3 C 13,9 C 85 % 1016,9 hPa 0,0 l/m 0,00 h 0,00 h 0 W/m 7,5 km/h (2 Bft) 95,66 %
04.07.2020 05:00 15,2 C 14,2 C 13,9 C 87 % 1016,7 hPa 0,0 l/m 0,00 h 0,13 h 7 W/m 6,3 km/h (2 Bft) 97,72 %
04.07.2020 06:00 15,1 C 14,6 C 14,1 C 87 % 1016,3 hPa 0,0 l/m 0,00 h 0,00 h 24 W/m 3,9 km/h (1 Bft) 97,82 %
04.07.2020 07:00 15,7 C 15,8 C 14,8 C 85 % 1016,1 hPa 0,0 l/m 0,00 h 0,00 h 62 W/m 11,6 km/h (2 Bft) 96,58 %
04.07.2020 08:00 16,7 C 16,9 C 15,7 C 82 % 1016,0 hPa 0,0 l/m 0,00 h 0,07 h 95 W/m 14,8 km/h (3 Bft) 97,29 %
04.07.2020 09:00 18,3 C 19,2 C 17,6 C 76 % 1015,7 hPa 0,0 l/m 0,17 h 0,00 h 234 W/m 22,5 km/h (4 Bft) 97,29 %
04.07.2020 10:00 19,6 C 20,6 C 19,1 C 71 % 1015,5 hPa 0,0 l/m 0,30 h 0,00 h 323 W/m 29,7 km/h (5 Bft) 96,58 %
04.07.2020 11:00 20,6 C 21,4 C 20,0 C 69 % 1015,2 hPa 0,0 l/m 0,40 h 0,00 h 359 W/m 32,4 km/h (5 Bft) 94,53 %
04.07.2020 12:00 20,1 C 19,2 C 18,7 C 75 % 1015,1 hPa 0,0 l/m 0,03 h 0,40 h 264 W/m 25,8 km/h (4 Bft) 99,21 %
04.07.2020 13:00 20,8 C 21,4 C 19,9 C 73 % 1015,0 hPa 0,0 l/m 0,03 h 0,00 h 272 W/m 24,7 km/h (4 Bft) 99,08 %
04.07.2020 14:00 21,9 C 22,1 C 20,9 C 71 % 1014,7 hPa 0,0 l/m 0,00 h 0,00 h 252 W/m 27,1 km/h (4 Bft) 94,23 %
04.07.2020 15:00 21,9 C 21,5 C 20,6 C 73 % 1014,8 hPa 0,0 l/m 0,00 h 0,00 h 187 W/m 21,3 km/h (4 Bft) 99,43 %
04.07.2020 16:00 21,6 C 21,6 C 20,5 C 76 % 1014,7 hPa 0,0 l/m 0,00 h 0,00 h 169 W/m 18,2 km/h (3 Bft) 98,43 %
04.07.2020 17:00 21,7 C 21,4 C 20,6 C 76 % 1014,6 hPa 0,0 l/m 0,00 h 0,00 h 128 W/m 17,8 km/h (3 Bft) 95,23 %
04.07.2020 18:00 21,9 C 21,6 C 20,6 C 74 % 1014,2 hPa 0,0 l/m 0,00 h 0,00 h 100 W/m 19,5 km/h (3 Bft) 98,90 %
04.07.2020 19:00 21,7 C 20,3 C 20,1 C 77 % 1014,2 hPa 0,0 l/m 0,00 h 0,20 h 37 W/m 20,5 km/h (4 Bft) 97,79 %
04.07.2020 20:00 20,3 C 18,7 C 18,5 C 86 % 1014,2 hPa 0,0 l/m 0,00 h 0,20 h 22 W/m 24,3 km/h (4 Bft) 96,43 %
04.07.2020 21:00 19,6 C 18,5 C 18,3 C 89 % 1013,9 hPa 0,0 l/m 0,00 h 0,00 h 8 W/m 18,1 km/h (3 Bft) 97,32 %
04.07.2020 22:00 19,4 C 17,5 C 17,9 C 90 % 1013,8 hPa 0,2 l/m 0,00 h 0,67 h 0 W/m 21,0 km/h (4 Bft) 98,08 %
04.07.2020 23:00 18,8 C 16,9 C 17,1 C 94 % 1013,6 hPa 0,2 l/m 0,00 h 0,20 h 0 W/m 20,4 km/h (4 Bft) 98,42 %
05.07.2020 00:00 18,7 C 17,2 C 17,2 C 95 % 1013,3 hPa 0,0 l/m 0,00 h 0,00 h 0 W/m 23,8 km/h (4 Bft) 95,71 %
05.07.2020 01:00 19,0 C 17,8 C 17,7 C 94 % 1013,0 hPa 0,0 l/m 0,00 h 0,00 h 0 W/m 24,3 km/h (4 Bft) 98,15 %
05.07.2020 02:00 19,6 C 18,6 C 18,2 C 91 % 1012,7 hPa 0,0 l/m 0,00 h 0,00 h 0 W/m 26,8 km/h (4 Bft) 98,22 %
05.07.2020 03:00 19,8 C 18,8 C 18,3 C 90 % 1012,0 hPa 0,0 l/m 0,00 h 0,00 h 0 W/m 25,8 km/h (4 Bft) 95,52 %
05.07.2020 04:00 19,3 C 17,2 C 17,3 C 93 % 1012,0 hPa 0,0 l/m 0,00 h 0,30 h 0 W/m 16,5 km/h (3 Bft) 98,73 %
05.07.2020 05:00 18,5 C 17,0 C 17,1 C 97 % 1011,8 hPa 0,2 l/m 0,00 h 0,17 h 0 W/m 11,2 km/h (2 Bft) 98,58 %
05.07.2020 06:00 18,4 C 16,7 C 16,9 C 98 % 1011,7 hPa 0,2 l/m 0,00 h 0,13 h 8 W/m 9,0 km/h (2 Bft) 95,99 %
05.07.2020 07:00 18,4 C 17,2 C 17,2 C 98 % 1011,8 hPa 0,2 l/m 0,00 h 0,00 h 36 W/m 7,5 km/h (2 Bft) 97,65 %
05.07.2020 08:00 18,6 C 17,8 C 17,6 C 98 % 1012,0 hPa 0,0 l/m 0,00 h 0,00 h 73 W/m 14,6 km/h (3 Bft) 98,15 %
05.07.2020 09:00 19,2 C 18,3 C 18,3 C 98 % 1012,1 hPa 0,0 l/m 0,10 h 0,43 h 169 W/m 19,9 km/h (4 Bft) 96,94 %
05.07.2020 10:00 20,5 C 21,1 C 20,4 C 94 % 1012,1 hPa 0,0 l/m 0,20 h 0,00 h 302 W/m 29,4 km/h (5 Bft) 98,15 %
05.07.2020 11:00 21,5 C 21,8 C 20,2 C 86 % 1012,0 hPa 0,0 l/m 0,00 h 0,00 h 250 W/m 26,7 km/h (4 Bft) 97,08 %
05.07.2020 12:00 22,2 C 22,7 C 21,0 C 82 % 1011,8 hPa 0,0 l/m 0,00 h 0,00 h 213 W/m 30,1 km/h (5 Bft) 97,23 %
05.07.2020 13:00 22,5 C 22,5 C 21,1 C 81 % 1011,7 hPa 0,0 l/m 0,00 h 0,00 h 175 W/m 25,3 km/h (4 Bft) 97,65 %
05.07.2020 14:00 22,3 C 22,4 C 21,0 C 81 % 1011,9 hPa 0,0 l/m 0,00 h 0,00 h 205 W/m 22,8 km/h (4 Bft) 97,51 %
05.07.2020 15:00 22,3 C 22,3 C 21,0 C 83 % 1012,0 hPa 0,0 l/m 0,03 h 0,37 h 261 W/m 21,7 km/h (4 Bft) 97,73 %
05.07.2020 16:00 22,8 C 24,0 C 21,4 C 84 % 1012,0 hPa 0,0 l/m 0,30 h 0,13 h 307 W/m 23,1 km/h (4 Bft) 96,02 %
05.07.2020 17:00 22,7 C 22,5 C 20,8 C 84 % 1011,8 hPa 0,2 l/m 0,57 h 0,20 h 403 W/m 19,2 km/h (3 Bft) 98,28 %
05.07.2020 18:00 23,6 C 24,3 C 21,7 C 76 % 1011,1 hPa 0,0 l/m 0,77 h 0,00 h 372 W/m 22,4 km/h (4 Bft) 98,71 %
05.07.2020 19:00 23,2 C 22,3 C 21,0 C 71 % 1010,9 hPa 0,0 l/m 0,20 h 0,00 h 107 W/m 19,1 km/h (3 Bft) 95,69 %
05.07.2020 20:00 22,1 C 21,1 C 20,5 C 71 % 1010,8 hPa 0,0 l/m 0,00 h 0,00 h 42 W/m 18,9 km/h (3 Bft) 98,93 %
05.07.2020 21:00 21,1 C 19,6 C 19,3 C 70 % 1011,1 hPa 0,0 l/m 0,00 h 0,00 h 10 W/m 20,5 km/h (4 Bft) 98,15 %
05.07.2020 22:00 19,5 C 18,1 C 17,8 C 69 % 1011,8 hPa 0,0 l/m 0,00 h 0,00 h 0 W/m 19,5 km/h (3 Bft) 96,75 %
05.07.2020 23:00 18,1 C 16,6 C 16,7 C 71 % 1012,1 hPa 0,0 l/m 0,00 h 0,00 h 0 W/m 14,7 km/h (3 Bft) 97,65 %
Min-Datum _ 03.07.20 03.07.20 03.07.20 29.06.20 01.07.20 - - - - 29.06.20 30.06.20
_ Min-Zeit 04:36 03:46 03:50 16:26 15:48 - - - - 00:02 03:12
Minimum _ 12,7 C 11,7 C 11,7 C 50 % 1006,7 hPa - - - - 0,0 km/h (0 Bft) 53,66 %
Max-Datum _ 05.07.20 02.07.20 29.06.20 01.07.20 03.07.20 01.07.20 30.06.20 30.06.20 29.06.20 05.07.20 29.06.20
_ Max-Zeit 19:04 14:50 10:58 10:32 13:18 16:12 12:08 18:08 13:28 10:26 00:00
Maximum _ 23,9 C 28,9 C 25,6 C 100 % 1018,7 hPa 10,8 l/m 0,07 h 0,07 h 1193 W/m 51,5 km/h
SO (7 Bft)
100,00 %
Durchschnitt _ 18,5 C 18,1 C 17,3 C 81 % 1012,3 hPa #24,0 l/m #19:24 h #12:50 h 206 W/m 13,9 km/h (3 Bft) 96,99 %
© 2020 W. Hausmann